sensor_id;sensor_type;location;lat;lon;timestamp;temperature;humidity
39189;DHT22;24915;50.858;4.376;2023-02-15T00:01:08;8.60;99.90
39189;DHT22;24915;50.858;4.376;2023-02-15T00:03:35;8.50;99.90
39189;DHT22;24915;50.858;4.376;2023-02-15T00:06:01;8.50;99.90
39189;DHT22;24915;50.858;4.376;2023-02-15T00:08:27;8.50;99.90
39189;DHT22;24915;50.858;4.376;2023-02-15T00:10:53;8.40;99.90
39189;DHT22;24915;50.858;4.376;2023-02-15T00:13:19;8.40;99.90
39189;DHT22;24915;50.858;4.376;2023-02-15T00:15:44;8.40;99.90
39189;DHT22;24915;50.858;4.376;2023-02-15T00:18:10;8.40;99.90
39189;DHT22;24915;50.858;4.376;2023-02-15T00:20:35;8.30;99.90
39189;DHT22;24915;50.858;4.376;2023-02-15T00:23:01;8.30;99.90
39189;DHT22;24915;50.858;4.376;2023-02-15T00:25:27;8.30;99.90
39189;DHT22;24915;50.858;4.376;2023-02-15T00:27:52;8.30;99.90
39189;DHT22;24915;50.858;4.376;2023-02-15T00:30:18;8.30;99.90
39189;DHT22;24915;50.858;4.376;2023-02-15T00:32:44;8.30;99.90
39189;DHT22;24915;50.858;4.376;2023-02-15T00:35:09;8.30;99.90
39189;DHT22;24915;50.858;4.376;2023-02-15T00:37:36;8.20;99.90
39189;DHT22;24915;50.858;4.376;2023-02-15T00:40:01;8.20;99.90
39189;DHT22;24915;50.858;4.376;2023-02-15T00:42:27;8.20;99.90
39189;DHT22;24915;50.858;4.376;2023-02-15T00:44:53;8.10;99.90
39189;DHT22;24915;50.858;4.376;2023-02-15T00:47:18;8.10;99.90
39189;DHT22;24915;50.858;4.376;2023-02-15T00:49:44;8.10;99.90
39189;DHT22;24915;50.858;4.376;2023-02-15T00:52:10;8.10;99.90
39189;DHT22;24915;50.858;4.376;2023-02-15T00:54:35;8.10;99.90
39189;DHT22;24915;50.858;4.376;2023-02-15T00:57:01;8.10;99.90
39189;DHT22;24915;50.858;4.376;2023-02-15T00:59:27;8.10;99.90
39189;DHT22;24915;50.858;4.376;2023-02-15T01:01:52;8.00;99.90
39189;DHT22;24915;50.858;4.376;2023-02-15T01:04:18;8.00;99.90
39189;DHT22;24915;50.858;4.376;2023-02-15T01:06:43;8.10;99.90
39189;DHT22;24915;50.858;4.376;2023-02-15T01:09:09;8.10;99.90
39189;DHT22;24915;50.858;4.376;2023-02-15T01:11:35;8.10;99.90
39189;DHT22;24915;50.858;4.376;2023-02-15T01:14:00;8.10;99.90
39189;DHT22;24915;50.858;4.376;2023-02-15T01:16:29;8.10;99.90
39189;DHT22;24915;50.858;4.376;2023-02-15T01:18:55;8.10;99.90
39189;DHT22;24915;50.858;4.376;2023-02-15T01:21:26;8.10;99.90
39189;DHT22;24915;50.858;4.376;2023-02-15T01:23:52;8.10;99.90
39189;DHT22;24915;50.858;4.376;2023-02-15T01:26:18;8.00;99.90
39189;DHT22;24915;50.858;4.376;2023-02-15T01:28:44;8.00;99.90
39189;DHT22;24915;50.858;4.376;2023-02-15T01:31:13;7.90;99.90
39189;DHT22;24915;50.858;4.376;2023-02-15T01:33:39;7.90;99.90
39189;DHT22;24915;50.858;4.376;2023-02-15T01:36:05;7.90;99.90
39189;DHT22;24915;50.858;4.376;2023-02-15T01:38:31;7.80;99.90
39189;DHT22;24915;50.858;4.376;2023-02-15T01:40:57;7.80;99.90
39189;DHT22;24915;50.858;4.376;2023-02-15T01:43:45;7.80;99.90
39189;DHT22;24915;50.858;4.376;2023-02-15T01:46:13;7.70;99.90
39189;DHT22;24915;50.858;4.376;2023-02-15T01:48:51;7.70;99.90
39189;DHT22;24915;50.858;4.376;2023-02-15T01:51:20;7.70;99.90
39189;DHT22;24915;50.858;4.376;2023-02-15T01:54:01;7.70;99.90
39189;DHT22;24915;50.858;4.376;2023-02-15T01:56:31;7.60;99.90
39189;DHT22;24915;50.858;4.376;2023-02-15T01:59:02;7.60;99.90
39189;DHT22;24915;50.858;4.376;2023-02-15T02:01:29;7.50;99.90
39189;DHT22;24915;50.858;4.376;2023-02-15T02:06:31;7.50;99.90
39189;DHT22;24915;50.858;4.376;2023-02-15T02:08:57;7.40;99.90
39189;DHT22;24915;50.858;4.376;2023-02-15T02:11:23;7.40;99.90
39189;DHT22;24915;50.858;4.376;2023-02-15T02:13:50;7.40;99.90
39189;DHT22;24915;50.858;4.376;2023-02-15T02:16:33;7.40;99.90
39189;DHT22;24915;50.858;4.376;2023-02-15T02:22:34;7.30;99.90
39189;DHT22;24915;50.858;4.376;2023-02-15T02:27:43;7.20;99.90
39189;DHT22;24915;50.858;4.376;2023-02-15T02:43:52;7.10;99.90
39189;DHT22;24915;50.858;4.376;2023-02-15T02:46:51;7.10;99.90
39189;DHT22;24915;50.858;4.376;2023-02-15T02:49:33;7.10;99.90
39189;DHT22;24915;50.858;4.376;2023-02-15T02:52:06;7.00;99.90
39189;DHT22;24915;50.858;4.376;2023-02-15T02:54:34;7.00;99.90
39189;DHT22;24915;50.858;4.376;2023-02-15T02:57:04;7.00;99.90
39189;DHT22;24915;50.858;4.376;2023-02-15T02:59:36;7.00;99.90
39189;DHT22;24915;50.858;4.376;2023-02-15T03:04:31;7.00;99.90
39189;DHT22;24915;50.858;4.376;2023-02-15T03:07:03;7.00;99.90
39189;DHT22;24915;50.858;4.376;2023-02-15T03:09:38;7.00;99.90
39189;DHT22;24915;50.858;4.376;2023-02-15T03:12:16;7.00;99.90
39189;DHT22;24915;50.858;4.376;2023-02-15T03:14:46;7.00;99.90
39189;DHT22;24915;50.858;4.376;2023-02-15T03:17:14;7.00;99.90
39189;DHT22;24915;50.858;4.376;2023-02-15T03:19:40;7.00;99.90
39189;DHT22;24915;50.858;4.376;2023-02-15T03:22:15;6.90;99.90
39189;DHT22;24915;50.858;4.376;2023-02-15T03:24:47;6.90;99.90
39189;DHT22;24915;50.858;4.376;2023-02-15T03:27:18;6.90;99.90
39189;DHT22;24915;50.858;4.376;2023-02-15T03:29:47;6.80;99.90
39189;DHT22;24915;50.858;4.376;2023-02-15T03:32:14;6.80;99.90
39189;DHT22;24915;50.858;4.376;2023-02-15T03:34:41;6.80;99.90
39189;DHT22;24915;50.858;4.376;2023-02-15T03:37:44;6.80;99.90
39189;DHT22;24915;50.858;4.376;2023-02-15T03:40:21;6.80;99.90
39189;DHT22;24915;50.858;4.376;2023-02-15T03:48:52;6.70;99.90
39189;DHT22;24915;50.858;4.376;2023-02-15T03:51:26;6.70;99.90
39189;DHT22;24915;50.858;4.376;2023-02-15T03:54:12;6.70;99.90
39189;DHT22;24915;50.858;4.376;2023-02-15T03:57:01;6.70;99.90
39189;DHT22;24915;50.858;4.376;2023-02-15T03:59:45;6.70;99.90
39189;DHT22;24915;50.858;4.376;2023-02-15T04:02:36;6.60;99.90
39189;DHT22;24915;50.858;4.376;2023-02-15T04:05:04;6.60;99.90
39189;DHT22;24915;50.858;4.376;2023-02-15T04:07:29;6.60;99.90
39189;DHT22;24915;50.858;4.376;2023-02-15T04:09:55;6.60;99.90
39189;DHT22;24915;50.858;4.376;2023-02-15T04:12:39;6.60;99.90
39189;DHT22;24915;50.858;4.376;2023-02-15T04:15:05;6.60;99.90
39189;DHT22;24915;50.858;4.376;2023-02-15T04:17:49;6.60;99.90
39189;DHT22;24915;50.858;4.376;2023-02-15T04:20:15;6.60;99.90
39189;DHT22;24915;50.858;4.376;2023-02-15T04:22:59;6.60;99.90
39189;DHT22;24915;50.858;4.376;2023-02-15T04:25:43;6.70;99.90
39189;DHT22;24915;50.858;4.376;2023-02-15T04:28:09;6.70;99.90
39189;DHT22;24915;50.858;4.376;2023-02-15T04:30:34;6.70;99.90
39189;DHT22;24915;50.858;4.376;2023-02-15T04:33:00;6.70;99.90
39189;DHT22;24915;50.858;4.376;2023-02-15T04:35:26;6.70;99.90
39189;DHT22;24915;50.858;4.376;2023-02-15T04:37:51;6.70;99.90
39189;DHT22;24915;50.858;4.376;2023-02-15T04:40:17;6.70;99.90
39189;DHT22;24915;50.858;4.376;2023-02-15T04:42:43;6.70;99.90
39189;DHT22;24915;50.858;4.376;2023-02-15T04:45:09;6.60;99.90
39189;DHT22;24915;50.858;4.376;2023-02-15T04:47:34;6.60;99.90
39189;DHT22;24915;50.858;4.376;2023-02-15T04:50:00;6.60;99.90
39189;DHT22;24915;50.858;4.376;2023-02-15T04:52:25;6.60;99.90
39189;DHT22;24915;50.858;4.376;2023-02-15T04:54:51;6.60;99.90
39189;DHT22;24915;50.858;4.376;2023-02-15T04:57:17;6.60;99.90
39189;DHT22;24915;50.858;4.376;2023-02-15T04:59:42;6.60;99.90
39189;DHT22;24915;50.858;4.376;2023-02-15T05:02:08;6.60;99.90
39189;DHT22;24915;50.858;4.376;2023-02-15T05:04:34;6.60;99.90
39189;DHT22;24915;50.858;4.376;2023-02-15T05:06:59;6.60;99.90
39189;DHT22;24915;50.858;4.376;2023-02-15T05:09:25;6.60;99.90
39189;DHT22;24915;50.858;4.376;2023-02-15T05:11:51;6.60;99.90
39189;DHT22;24915;50.858;4.376;2023-02-15T05:14:16;6.50;99.90
39189;DHT22;24915;50.858;4.376;2023-02-15T05:16:42;6.50;99.90
39189;DHT22;24915;50.858;4.376;2023-02-15T05:19:08;6.50;99.90
39189;DHT22;24915;50.858;4.376;2023-02-15T05:21:34;6.40;99.90
39189;DHT22;24915;50.858;4.376;2023-02-15T05:23:59;6.40;99.90
39189;DHT22;24915;50.858;4.376;2023-02-15T05:26:25;6.40;99.90
39189;DHT22;24915;50.858;4.376;2023-02-15T05:29:10;6.30;99.90
39189;DHT22;24915;50.858;4.376;2023-02-15T05:31:36;6.30;99.90
39189;DHT22;24915;50.858;4.376;2023-02-15T05:34:02;6.30;99.90
39189;DHT22;24915;50.858;4.376;2023-02-15T05:36:28;6.30;99.90
39189;DHT22;24915;50.858;4.376;2023-02-15T05:38:54;6.30;99.90
39189;DHT22;24915;50.858;4.376;2023-02-15T05:41:20;6.30;99.90
39189;DHT22;24915;50.858;4.376;2023-02-15T05:43:46;6.20;99.90
39189;DHT22;24915;50.858;4.376;2023-02-15T05:46:12;6.20;99.90
39189;DHT22;24915;50.858;4.376;2023-02-15T05:48:38;6.20;99.90
39189;DHT22;24915;50.858;4.376;2023-02-15T05:51:09;6.20;99.90
39189;DHT22;24915;50.858;4.376;2023-02-15T05:53:37;6.10;99.90
39189;DHT22;24915;50.858;4.376;2023-02-15T05:56:04;6.10;99.90
39189;DHT22;24915;50.858;4.376;2023-02-15T05:58:32;6.10;99.90
39189;DHT22;24915;50.858;4.376;2023-02-15T06:00:58;6.10;99.90
39189;DHT22;24915;50.858;4.376;2023-02-15T06:03:24;6.00;99.90
39189;DHT22;24915;50.858;4.376;2023-02-15T06:05:52;6.00;99.90
39189;DHT22;24915;50.858;4.376;2023-02-15T06:08:18;6.00;99.90
39189;DHT22;24915;50.858;4.376;2023-02-15T06:10:45;6.00;99.90
39189;DHT22;24915;50.858;4.376;2023-02-15T06:13:11;5.90;99.90
39189;DHT22;24915;50.858;4.376;2023-02-15T06:15:37;5.90;99.90
39189;DHT22;24915;50.858;4.376;2023-02-15T06:18:03;5.90;99.90
39189;DHT22;24915;50.858;4.376;2023-02-15T06:20:28;5.90;99.90
39189;DHT22;24915;50.858;4.376;2023-02-15T06:22:54;5.90;99.90
39189;DHT22;24915;50.858;4.376;2023-02-15T06:25:20;5.90;99.90
39189;DHT22;24915;50.858;4.376;2023-02-15T06:27:45;5.90;99.90
39189;DHT22;24915;50.858;4.376;2023-02-15T06:30:12;5.90;99.90
39189;DHT22;24915;50.858;4.376;2023-02-15T06:32:38;5.90;99.90
39189;DHT22;24915;50.858;4.376;2023-02-15T06:35:03;5.90;99.90
39189;DHT22;24915;50.858;4.376;2023-02-15T06:37:29;5.90;99.90
39189;DHT22;24915;50.858;4.376;2023-02-15T06:39:55;5.90;99.90
39189;DHT22;24915;50.858;4.376;2023-02-15T06:42:22;5.80;99.90
39189;DHT22;24915;50.858;4.376;2023-02-15T06:44:48;5.80;99.90
39189;DHT22;24915;50.858;4.376;2023-02-15T06:47:13;5.80;99.90
39189;DHT22;24915;50.858;4.376;2023-02-15T06:49:39;5.80;99.90
39189;DHT22;24915;50.858;4.376;2023-02-15T06:52:05;5.80;99.90
39189;DHT22;24915;50.858;4.376;2023-02-15T06:54:30;5.70;99.90
39189;DHT22;24915;50.858;4.376;2023-02-15T06:56:56;5.70;99.90
39189;DHT22;24915;50.858;4.376;2023-02-15T06:59:22;5.70;99.90
39189;DHT22;24915;50.858;4.376;2023-02-15T07:01:48;5.70;99.90
39189;DHT22;24915;50.858;4.376;2023-02-15T07:04:15;5.70;99.90
39189;DHT22;24915;50.858;4.376;2023-02-15T07:06:40;5.70;99.90
39189;DHT22;24915;50.858;4.376;2023-02-15T07:09:06;5.70;99.90
39189;DHT22;24915;50.858;4.376;2023-02-15T07:11:32;5.70;99.90
39189;DHT22;24915;50.858;4.376;2023-02-15T07:14:16;5.80;99.90
39189;DHT22;24915;50.858;4.376;2023-02-15T07:16:42;5.80;99.90
39189;DHT22;24915;50.858;4.376;2023-02-15T07:19:08;5.80;99.90
39189;DHT22;24915;50.858;4.376;2023-02-15T07:21:35;5.80;99.90
39189;DHT22;24915;50.858;4.376;2023-02-15T07:24:01;5.80;99.90
39189;DHT22;24915;50.858;4.376;2023-02-15T07:26:27;5.90;99.90
39189;DHT22;24915;50.858;4.376;2023-02-15T07:28:52;5.90;99.90
39189;DHT22;24915;50.858;4.376;2023-02-15T07:31:18;6.00;99.90
39189;DHT22;24915;50.858;4.376;2023-02-15T07:33:44;6.20;99.90
39189;DHT22;24915;50.858;4.376;2023-02-15T07:36:10;6.30;99.90
39189;DHT22;24915;50.858;4.376;2023-02-15T07:38:39;6.40;99.90
39189;DHT22;24915;50.858;4.376;2023-02-15T07:41:10;6.60;99.90
39189;DHT22;24915;50.858;4.376;2023-02-15T07:43:39;6.70;99.90
39189;DHT22;24915;50.858;4.376;2023-02-15T07:46:10;6.80;99.90
39189;DHT22;24915;50.858;4.376;2023-02-15T07:48:37;6.90;99.90
39189;DHT22;24915;50.858;4.376;2023-02-15T07:51:05;7.10;99.90
39189;DHT22;24915;50.858;4.376;2023-02-15T07:53:32;7.30;99.90
39189;DHT22;24915;50.858;4.376;2023-02-15T07:55:59;7.40;99.90
39189;DHT22;24915;50.858;4.376;2023-02-15T07:58:25;7.50;99.90
39189;DHT22;24915;50.858;4.376;2023-02-15T08:01:11;7.60;99.90
39189;DHT22;24915;50.858;4.376;2023-02-15T08:03:36;7.80;99.90
39189;DHT22;24915;50.858;4.376;2023-02-15T08:06:02;7.90;99.90
39189;DHT22;24915;50.858;4.376;2023-02-15T08:08:28;8.00;99.90
39189;DHT22;24915;50.858;4.376;2023-02-15T08:13:49;8.20;99.90
39189;DHT22;24915;50.858;4.376;2023-02-15T08:19:02;8.40;99.90
39189;DHT22;24915;50.858;4.376;2023-02-15T08:21:29;8.60;99.90
39189;DHT22;24915;50.858;4.376;2023-02-15T08:23:55;8.70;99.90
39189;DHT22;24915;50.858;4.376;2023-02-15T08:26:22;8.90;99.90
39189;DHT22;24915;50.858;4.376;2023-02-15T08:28:48;9.00;99.90
39189;DHT22;24915;50.858;4.376;2023-02-15T08:31:16;9.20;99.90
39189;DHT22;24915;50.858;4.376;2023-02-15T08:33:43;9.30;99.90
39189;DHT22;24915;50.858;4.376;2023-02-15T08:36:15;9.50;99.90
39189;DHT22;24915;50.858;4.376;2023-02-15T08:38:41;9.60;99.90
39189;DHT22;24915;50.858;4.376;2023-02-15T08:43:42;9.90;99.90
39189;DHT22;24915;50.858;4.376;2023-02-15T08:46:09;10.10;99.90
39189;DHT22;24915;50.858;4.376;2023-02-15T08:48:35;10.30;99.90
39189;DHT22;24915;50.858;4.376;2023-02-15T08:51:05;10.40;99.90
39189;DHT22;24915;50.858;4.376;2023-02-15T08:53:32;10.40;99.90
39189;DHT22;24915;50.858;4.376;2023-02-15T08:55:58;10.40;99.90
39189;DHT22;24915;50.858;4.376;2023-02-15T08:58:24;10.50;99.90
39189;DHT22;24915;50.858;4.376;2023-02-15T09:00:50;10.50;99.90
39189;DHT22;24915;50.858;4.376;2023-02-15T09:03:16;10.60;99.90
39189;DHT22;24915;50.858;4.376;2023-02-15T09:05:42;10.70;99.90
39189;DHT22;24915;50.858;4.376;2023-02-15T09:08:08;10.80;99.90
39189;DHT22;24915;50.858;4.376;2023-02-15T09:10:34;10.80;99.90
39189;DHT22;24915;50.858;4.376;2023-02-15T09:13:00;10.80;99.90
39189;DHT22;24915;50.858;4.376;2023-02-15T09:15:26;10.90;99.90
39189;DHT22;24915;50.858;4.376;2023-02-15T09:17:52;10.80;99.90
39189;DHT22;24915;50.858;4.376;2023-02-15T09:20:18;10.80;99.90
39189;DHT22;24915;50.858;4.376;2023-02-15T09:22:44;10.80;99.90
39189;DHT22;24915;50.858;4.376;2023-02-15T09:25:10;10.90;99.90
39189;DHT22;24915;50.858;4.376;2023-02-15T09:27:35;10.90;99.90
39189;DHT22;24915;50.858;4.376;2023-02-15T09:30:02;10.90;99.90
39189;DHT22;24915;50.858;4.376;2023-02-15T09:32:28;11.00;99.90
39189;DHT22;24915;50.858;4.376;2023-02-15T09:34:54;10.90;99.90
39189;DHT22;24915;50.858;4.376;2023-02-15T09:37:20;10.90;99.90
39189;DHT22;24915;50.858;4.376;2023-02-15T09:39:45;10.90;99.90
39189;DHT22;24915;50.858;4.376;2023-02-15T09:42:54;10.90;99.90
39189;DHT22;24915;50.858;4.376;2023-02-15T09:48:19;11.10;99.90
39189;DHT22;24915;50.858;4.376;2023-02-15T09:51:06;11.30;99.90
39189;DHT22;24915;50.858;4.376;2023-02-15T09:54:29;11.50;99.90
39189;DHT22;24915;50.858;4.376;2023-02-15T09:56:53;11.70;99.90
39189;DHT22;24915;50.858;4.376;2023-02-15T10:02:11;11.60;99.90
39189;DHT22;24915;50.858;4.376;2023-02-15T10:05:09;11.70;99.90
39189;DHT22;24915;50.858;4.376;2023-02-15T10:07:43;11.70;99.90
39189;DHT22;24915;50.858;4.376;2023-02-15T10:18:42;12.10;99.90
39189;DHT22;24915;50.858;4.376;2023-02-15T10:21:46;12.20;99.90
39189;DHT22;24915;50.858;4.376;2023-02-15T10:26:50;12.20;99.90
39189;DHT22;24915;50.858;4.376;2023-02-15T10:29:37;12.30;99.90
39189;DHT22;24915;50.858;4.376;2023-02-15T10:32:27;12.40;99.90
39189;DHT22;24915;50.858;4.376;2023-02-15T10:35:03;12.60;99.90
39189;DHT22;24915;50.858;4.376;2023-02-15T10:38:07;12.60;99.90
39189;DHT22;24915;50.858;4.376;2023-02-15T10:46:20;12.30;99.90
39189;DHT22;24915;50.858;4.376;2023-02-15T10:54:18;12.40;99.90
39189;DHT22;24915;50.858;4.376;2023-02-15T10:57:26;12.30;99.90
39189;DHT22;24915;50.858;4.376;2023-02-15T11:00:09;12.00;99.90
39189;DHT22;24915;50.858;4.376;2023-02-15T11:05:46;12.20;99.90
39189;DHT22;24915;50.858;4.376;2023-02-15T11:08:18;12.30;99.90
39189;DHT22;24915;50.858;4.376;2023-02-15T11:10:59;12.40;99.90
39189;DHT22;24915;50.858;4.376;2023-02-15T11:13:31;12.60;99.90
39189;DHT22;24915;50.858;4.376;2023-02-15T11:16:29;12.90;99.90
39189;DHT22;24915;50.858;4.376;2023-02-15T11:19:21;12.80;99.90
39189;DHT22;24915;50.858;4.376;2023-02-15T11:21:57;12.60;99.90
39189;DHT22;24915;50.858;4.376;2023-02-15T11:24:26;12.70;99.90
39189;DHT22;24915;50.858;4.376;2023-02-15T11:27:03;12.70;99.90
39189;DHT22;24915;50.858;4.376;2023-02-15T11:32:45;13.00;99.90
39189;DHT22;24915;50.858;4.376;2023-02-15T11:40:26;13.50;99.90
39189;DHT22;24915;50.858;4.376;2023-02-15T11:42:56;14.00;99.90
39189;DHT22;24915;50.858;4.376;2023-02-15T11:45:33;14.30;99.50
39189;DHT22;24915;50.858;4.376;2023-02-15T11:48:00;14.30;99.00
39189;DHT22;24915;50.858;4.376;2023-02-15T11:50:32;14.10;99.10
39189;DHT22;24915;50.858;4.376;2023-02-15T11:53:00;14.10;99.70
39189;DHT22;24915;50.858;4.376;2023-02-15T11:55:28;14.20;99.60
39189;DHT22;24915;50.858;4.376;2023-02-15T11:58:22;14.10;99.20
39189;DHT22;24915;50.858;4.376;2023-02-15T12:00:52;14.10;99.20
39189;DHT22;24915;50.858;4.376;2023-02-15T12:03:29;14.10;99.80
39189;DHT22;24915;50.858;4.376;2023-02-15T12:06:02;14.30;98.90
39189;DHT22;24915;50.858;4.376;2023-02-15T12:08:37;14.30;99.20
39189;DHT22;24915;50.858;4.376;2023-02-15T12:11:19;14.50;98.80
39189;DHT22;24915;50.858;4.376;2023-02-15T12:14:01;14.40;98.80
39189;DHT22;24915;50.858;4.376;2023-02-15T12:16:28;14.50;98.80
39189;DHT22;24915;50.858;4.376;2023-02-15T12:19:00;14.50;98.90
39189;DHT22;24915;50.858;4.376;2023-02-15T12:21:30;14.40;98.80
39189;DHT22;24915;50.858;4.376;2023-02-15T12:24:18;14.20;99.00
39189;DHT22;24915;50.858;4.376;2023-02-15T12:26:44;13.90;99.70
39189;DHT22;24915;50.858;4.376;2023-02-15T12:29:16;14.00;99.90
39189;DHT22;24915;50.858;4.376;2023-02-15T12:31:48;14.10;99.60
39189;DHT22;24915;50.858;4.376;2023-02-15T12:34:22;14.10;99.90
39189;DHT22;24915;50.858;4.376;2023-02-15T12:36:55;14.10;99.60
39189;DHT22;24915;50.858;4.376;2023-02-15T12:39:32;14.30;99.50
39189;DHT22;24915;50.858;4.376;2023-02-15T12:42:24;14.60;99.20
39189;DHT22;24915;50.858;4.376;2023-02-15T12:47:19;14.90;98.70
39189;DHT22;24915;50.858;4.376;2023-02-15T12:52:47;16.00;97.80
39189;DHT22;24915;50.858;4.376;2023-02-15T12:55:20;15.90;96.80
39189;DHT22;24915;50.858;4.376;2023-02-15T12:57:47;16.10;96.90
39189;DHT22;24915;50.858;4.376;2023-02-15T13:02:47;16.80;96.70
39189;DHT22;24915;50.858;4.376;2023-02-15T13:07:49;16.50;95.60
39189;DHT22;24915;50.858;4.376;2023-02-15T13:10:30;16.50;95.70
39189;DHT22;24915;50.858;4.376;2023-02-15T13:12:57;16.60;95.60
39189;DHT22;24915;50.858;4.376;2023-02-15T13:17:52;17.20;95.00
39189;DHT22;24915;50.858;4.376;2023-02-15T13:20:21;17.30;94.00
39189;DHT22;24915;50.858;4.376;2023-02-15T13:22:50;17.20;94.70
39189;DHT22;24915;50.858;4.376;2023-02-15T13:25:34;17.30;94.10
39189;DHT22;24915;50.858;4.376;2023-02-15T13:28:05;17.10;94.80
39189;DHT22;24915;50.858;4.376;2023-02-15T13:30:36;17.30;94.00
39189;DHT22;24915;50.858;4.376;2023-02-15T13:33:31;17.40;94.50
39189;DHT22;24915;50.858;4.376;2023-02-15T13:36:03;17.90;94.50
39189;DHT22;24915;50.858;4.376;2023-02-15T13:38:45;17.80;93.30
39189;DHT22;24915;50.858;4.376;2023-02-15T13:47:06;17.50;93.30
39189;DHT22;24915;50.858;4.376;2023-02-15T13:52:21;17.10;93.20
39189;DHT22;24915;50.858;4.376;2023-02-15T14:00:21;16.40;93.50
39189;DHT22;24915;50.858;4.376;2023-02-15T14:08:54;15.70;95.40
39189;DHT22;24915;50.858;4.376;2023-02-15T14:17:55;16.60;94.80
39189;DHT22;24915;50.858;4.376;2023-02-15T14:23:29;16.60;94.50
39189;DHT22;24915;50.858;4.376;2023-02-15T14:29:01;16.00;95.30
39189;DHT22;24915;50.858;4.376;2023-02-15T14:31:37;15.80;95.80
39189;DHT22;24915;50.858;4.376;2023-02-15T14:34:05;15.80;96.00
39189;DHT22;24915;50.858;4.376;2023-02-15T14:36:32;15.90;95.80
39189;DHT22;24915;50.858;4.376;2023-02-15T14:42:37;15.70;96.10
39189;DHT22;24915;50.858;4.376;2023-02-15T14:47:46;16.00;95.90
39189;DHT22;24915;50.858;4.376;2023-02-15T15:01:29;16.30;95.40
39189;DHT22;24915;50.858;4.376;2023-02-15T15:04:03;15.90;96.00
39189;DHT22;24915;50.858;4.376;2023-02-15T15:06:32;15.60;96.60
39189;DHT22;24915;50.858;4.376;2023-02-15T15:09:29;15.30;97.20
39189;DHT22;24915;50.858;4.376;2023-02-15T15:14:48;15.30;97.60
39189;DHT22;24915;50.858;4.376;2023-02-15T15:19:59;16.00;96.40
39189;DHT22;24915;50.858;4.376;2023-02-15T15:22:27;16.00;96.30
39189;DHT22;24915;50.858;4.376;2023-02-15T15:25:02;16.00;96.10
39189;DHT22;24915;50.858;4.376;2023-02-15T15:27:44;16.10;96.10
39189;DHT22;24915;50.858;4.376;2023-02-15T15:35:24;16.10;95.70
39189;DHT22;24915;50.858;4.376;2023-02-15T15:43:24;15.30;97.30
39189;DHT22;24915;50.858;4.376;2023-02-15T15:46:40;15.10;97.80
39189;DHT22;24915;50.858;4.376;2023-02-15T15:49:08;14.80;98.30
39189;DHT22;24915;50.858;4.376;2023-02-15T15:51:39;14.80;98.60
39189;DHT22;24915;50.858;4.376;2023-02-15T15:54:06;14.70;99.10
39189;DHT22;24915;50.858;4.376;2023-02-15T15:56:37;14.70;98.70
39189;DHT22;24915;50.858;4.376;2023-02-15T15:59:11;14.80;98.70
39189;DHT22;24915;50.858;4.376;2023-02-15T16:01:43;14.60;98.90
39189;DHT22;24915;50.858;4.376;2023-02-15T16:04:14;14.50;99.20
39189;DHT22;24915;50.858;4.376;2023-02-15T16:06:48;14.10;99.70
39189;DHT22;24915;50.858;4.376;2023-02-15T16:09:22;13.90;99.90
39189;DHT22;24915;50.858;4.376;2023-02-15T16:11:54;13.70;99.90
39189;DHT22;24915;50.858;4.376;2023-02-15T16:14:36;13.60;99.90
39189;DHT22;24915;50.858;4.376;2023-02-15T16:17:05;13.40;99.90
39189;DHT22;24915;50.858;4.376;2023-02-15T16:19:36;13.10;99.90
39189;DHT22;24915;50.858;4.376;2023-02-15T16:22:04;12.90;99.90
39189;DHT22;24915;50.858;4.376;2023-02-15T16:29:46;12.70;99.90
39189;DHT22;24915;50.858;4.376;2023-02-15T16:34:54;12.50;99.90
39189;DHT22;24915;50.858;4.376;2023-02-15T16:37:23;12.50;99.90
39189;DHT22;24915;50.858;4.376;2023-02-15T16:39:51;12.40;99.90
39189;DHT22;24915;50.858;4.376;2023-02-15T16:42:17;12.30;99.90
39189;DHT22;24915;50.858;4.376;2023-02-15T16:44:45;12.30;99.90
39189;DHT22;24915;50.858;4.376;2023-02-15T16:47:17;12.20;99.90
39189;DHT22;24915;50.858;4.376;2023-02-15T16:49:48;12.20;99.90
39189;DHT22;24915;50.858;4.376;2023-02-15T16:52:20;12.10;99.90
39189;DHT22;24915;50.858;4.376;2023-02-15T16:54:50;12.00;99.90
39189;DHT22;24915;50.858;4.376;2023-02-15T16:57:22;11.90;99.90
39189;DHT22;24915;50.858;4.376;2023-02-15T16:59:52;11.90;99.90
39189;DHT22;24915;50.858;4.376;2023-02-15T17:02:30;11.90;99.90
39189;DHT22;24915;50.858;4.376;2023-02-15T17:07:40;11.80;99.90
39189;DHT22;24915;50.858;4.376;2023-02-15T17:10:28;11.70;99.90
39189;DHT22;24915;50.858;4.376;2023-02-15T17:12:55;11.70;99.90
39189;DHT22;24915;50.858;4.376;2023-02-15T17:15:35;11.70;99.90
39189;DHT22;24915;50.858;4.376;2023-02-15T17:18:16;11.60;99.90
39189;DHT22;24915;50.858;4.376;2023-02-15T17:20:44;11.50;99.90
39189;DHT22;24915;50.858;4.376;2023-02-15T17:25:50;11.50;99.90
39189;DHT22;24915;50.858;4.376;2023-02-15T17:28:19;11.40;99.90
39189;DHT22;24915;50.858;4.376;2023-02-15T17:30:46;11.40;99.90
39189;DHT22;24915;50.858;4.376;2023-02-15T17:33:35;11.40;99.90
39189;DHT22;24915;50.858;4.376;2023-02-15T17:38:29;11.40;99.90
39189;DHT22;24915;50.858;4.376;2023-02-15T17:40:55;11.40;99.90
39189;DHT22;24915;50.858;4.376;2023-02-15T17:43:21;11.30;99.90
39189;DHT22;24915;50.858;4.376;2023-02-15T17:45:49;11.40;99.90
39189;DHT22;24915;50.858;4.376;2023-02-15T17:50:47;11.30;99.90
39189;DHT22;24915;50.858;4.376;2023-02-15T17:53:16;11.30;99.90
39189;DHT22;24915;50.858;4.376;2023-02-15T17:55:43;11.30;99.90
39189;DHT22;24915;50.858;4.376;2023-02-15T17:58:14;11.20;99.90
39189;DHT22;24915;50.858;4.376;2023-02-15T18:00:46;11.20;99.90
39189;DHT22;24915;50.858;4.376;2023-02-15T18:03:47;11.20;99.90
39189;DHT22;24915;50.858;4.376;2023-02-15T18:06:33;11.20;99.90
39189;DHT22;24915;50.858;4.376;2023-02-15T18:09:19;11.20;99.90
39189;DHT22;24915;50.858;4.376;2023-02-15T18:12:30;11.10;99.90
39189;DHT22;24915;50.858;4.376;2023-02-15T18:14:56;11.10;99.90
39189;DHT22;24915;50.858;4.376;2023-02-15T18:17:33;11.00;99.90
39189;DHT22;24915;50.858;4.376;2023-02-15T18:20:00;11.00;99.90
39189;DHT22;24915;50.858;4.376;2023-02-15T18:22:29;10.90;99.90
39189;DHT22;24915;50.858;4.376;2023-02-15T18:24:55;10.90;99.90
39189;DHT22;24915;50.858;4.376;2023-02-15T18:27:21;10.90;99.90
39189;DHT22;24915;50.858;4.376;2023-02-15T18:29:47;10.90;99.90
39189;DHT22;24915;50.858;4.376;2023-02-15T18:32:26;10.80;99.90
39189;DHT22;24915;50.858;4.376;2023-02-15T18:34:55;10.80;99.90
39189;DHT22;24915;50.858;4.376;2023-02-15T18:37:21;10.80;99.90
39189;DHT22;24915;50.858;4.376;2023-02-15T18:39:50;10.70;99.90
39189;DHT22;24915;50.858;4.376;2023-02-15T18:42:22;10.70;99.90
39189;DHT22;24915;50.858;4.376;2023-02-15T18:44:49;10.70;99.90
39189;DHT22;24915;50.858;4.376;2023-02-15T18:47:18;10.60;99.90
39189;DHT22;24915;50.858;4.376;2023-02-15T18:49:43;10.60;99.90
39189;DHT22;24915;50.858;4.376;2023-02-15T18:52:17;10.60;99.90
39189;DHT22;24915;50.858;4.376;2023-02-15T18:54:47;10.60;99.90
39189;DHT22;24915;50.858;4.376;2023-02-15T18:57:15;10.60;99.90